Time;durP1;ratioP1;P1;durP2;ratioP2;P2;SDS_P1;SDS_P2;PMS_P1;PMS_P2;Temp;Humidity;BMP_temperature;BMP_pressure;BME280_temperature;BME280_humidity;BME280_pressure;Samples;Min_cycle;Max_cycle;Signal;HPM_P1;HPM_P2
2023/12/05 02:32:49;;;;;;;90.40;55.70;;;;;;;-5.30;76.56;96960.35;105636;1263;97469;-78
2023/12/05 02:35:15;;;;;;;91.40;58.20;;;;;;;-5.29;76.44;96947.98;107953;1238;97078;-79
2023/12/05 02:38:06;;;;;;;87.20;55.70;;;;;;;-5.27;76.54;96945.41;107831;1240;97550;-79
2023/12/05 02:40:46;;;;;;;66.00;42.30;;;;;;;-5.27;76.59;96946.44;107113;1245;100094;-75
2023/12/05 02:43:18;;;;;;;83.30;53.30;;;;;;;-5.30;76.71;96941.59;107884;1238;99902;-75
2023/12/05 02:45:49;;;;;;;90.70;55.80;;;;;;;-5.30;76.75;96938.63;107844;1241;96648;-75
2023/12/05 02:48:16;;;;;;;80.20;51.20;;;;;;;-5.28;76.81;96937.09;107309;1246;97136;-83
2023/12/05 02:50:43;;;;;;;81.10;50.90;;;;;;;-5.26;76.81;96938.34;106971;1248;99976;-84
2023/12/05 02:53:09;;;;;;;80.70;50.30;;;;;;;-5.25;76.84;96940.16;107269;1251;97566;-83
2023/12/05 02:55:36;;;;;;;76.10;48.20;;;;;;;-5.24;76.87;96938.48;107262;1252;96683;-83
2023/12/05 02:58:02;;;;;;;85.00;51.30;;;;;;;-5.22;76.85;96935.65;107255;1248;97059;-82
2023/12/05 03:00:28;;;;;;;81.50;51.00;;;;;;;-5.17;76.94;96933.13;107208;1251;102157;-83
2023/12/05 03:02:55;;;;;;;79.20;51.00;;;;;;;-5.14;76.99;96930.46;107369;1243;96950;-76
2023/12/05 03:05:21;;;;;;;78.60;51.90;;;;;;;-5.14;76.86;96930.61;107315;1244;97470;-75
2023/12/05 03:07:48;;;;;;;80.30;51.00;;;;;;;-5.14;76.83;96925.91;107608;1252;96530;-75
2023/12/05 03:10:14;;;;;;;85.40;53.50;;;;;;;-5.12;76.90;96925.95;107518;1242;101070;-75
2023/12/05 03:12:41;;;;;;;78.30;48.70;;;;;;;-5.10;76.98;96921.70;107553;1249;96698;-75
2023/12/05 03:15:08;;;;;;;71.60;46.90;;;;;;;-5.10;76.92;96918.39;107519;1242;96714;-75
2023/12/05 03:17:34;;;;;;;75.00;49.10;;;;;;;-5.10;76.90;96912.77;107620;1251;96782;-76
2023/12/05 03:20:00;;;;;;;71.00;46.40;;;;;;;-5.09;76.91;96907.05;107763;1241;101087;-75
2023/12/05 03:22:27;;;;;;;70.80;47.40;;;;;;;-5.08;77.08;96905.36;107986;1238;97782;-75
2023/12/05 03:24:53;;;;;;;71.50;47.20;;;;;;;-5.08;77.00;96904.14;107942;1244;96634;-75
2023/12/05 03:27:20;;;;;;;72.20;46.30;;;;;;;-5.08;76.94;96902.73;108029;1235;97437;-75
2023/12/05 03:29:46;;;;;;;69.10;46.20;;;;;;;-5.06;76.98;96905.42;107945;1235;102083;-75
2023/12/05 03:32:13;;;;;;;71.20;46.40;;;;;;;-5.05;76.98;96902.48;108098;1238;97386;-81
2023/12/05 03:34:39;;;;;;;71.30;45.80;;;;;;;-5.02;77.04;96901.19;107862;1240;97075;-81
2023/12/05 03:37:06;;;;;;;72.20;46.80;;;;;;;-5.00;77.01;96904.77;107729;1248;96623;-76
2023/12/05 03:39:32;;;;;;;74.40;47.30;;;;;;;-5.00;77.03;96903.02;107997;1248;100737;-76
2023/12/05 03:41:59;;;;;;;68.00;44.80;;;;;;;-5.02;77.15;96901.00;108000;1236;96574;-76
2023/12/05 03:44:25;;;;;;;70.50;45.90;;;;;;;-5.00;77.12;96900.35;107958;1241;97443;-76
2023/12/05 03:46:51;;;;;;;70.40;46.10;;;;;;;-5.00;77.02;96891.18;108087;1233;97407;-77
2023/12/05 03:49:18;;;;;;;72.50;44.60;;;;;;;-4.98;77.08;96886.16;107946;1244;101119;-77
2023/12/05 03:51:44;;;;;;;75.40;45.90;;;;;;;-4.98;77.16;96882.80;107988;1237;96789;-77
2023/12/05 03:54:10;;;;;;;75.60;45.50;;;;;;;-4.98;77.14;96882.42;107927;1238;97454;-77
2023/12/05 03:56:37;;;;;;;67.60;43.00;;;;;;;-4.98;77.19;96883.31;108041;1240;96468;-80
2023/12/05 03:59:03;;;;;;;69.90;43.30;;;;;;;-4.96;77.15;96889.00;107954;1248;100656;-80
2023/12/05 04:01:30;;;;;;;65.60;41.30;;;;;;;-4.95;77.20;96888.71;107947;1237;96553;-82
2023/12/05 04:03:56;;;;;;;61.20;40.70;;;;;;;-4.95;77.23;96887.58;107958;1237;97572;-81
2023/12/05 04:06:23;;;;;;;65.80;41.50;;;;;;;-4.91;77.25;96882.70;108007;1248;96550;-82
2023/12/05 04:08:51;;;;;;;63.20;42.10;;;;;;;-4.88;77.30;96879.30;107605;1248;101936;-82
2023/12/05 04:11:18;;;;;;;68.50;42.60;;;;;;;-4.87;77.35;96875.03;107921;1237;100946;-83
2023/12/05 04:13:44;;;;;;;70.30;43.20;;;;;;;-4.86;77.26;96878.42;107607;1241;97848;-84
2023/12/05 04:16:11;;;;;;;67.20;44.40;;;;;;;-4.85;77.33;96877.68;107931;1237;96757;-84
2023/12/05 04:18:37;;;;;;;65.00;44.10;;;;;;;-4.84;77.40;96881.42;107983;1238;96505;-85
2023/12/05 04:21:04;;;;;;;66.80;43.50;;;;;;;-4.83;77.41;96884.14;107945;1245;99032;-85
2023/12/05 04:23:30;;;;;;;71.10;42.40;;;;;;;-4.84;77.39;96884.64;107959;1237;97120;-79
2023/12/05 04:25:57;;;;;;;63.80;40.30;;;;;;;-4.85;77.46;96883.50;107956;1246;97450;-84
2023/12/05 04:28:23;;;;;;;61.10;40.00;;;;;;;-4.85;77.48;96880.79;108067;1237;96576;-84
2023/12/05 04:30:50;;;;;;;55.90;39.00;;;;;;;-4.83;77.51;96883.11;107443;1241;100155;-83
2023/12/05 04:33:16;;;;;;;61.50;40.20;;;;;;;-4.81;77.52;96881.67;107879;1236;96615;-76
2023/12/05 04:35:43;;;;;;;60.40;39.90;;;;;;;-4.80;77.45;96876.15;107972;1234;96459;-79
2023/12/05 04:38:09;;;;;;;59.40;40.50;;;;;;;-4.79;77.56;96875.88;107982;1240;96724;-78
2023/12/05 04:40:36;;;;;;;57.90;38.70;;;;;;;-4.77;77.55;96871.70;107950;1245;101267;-79
2023/12/05 04:43:02;;;;;;;58.40;39.80;;;;;;;-4.76;77.62;96871.96;108033;1237;97504;-78
2023/12/05 04:45:29;;;;;;;58.00;40.30;;;;;;;-4.75;77.47;96874.38;107848;1237;97902;-78
2023/12/05 04:47:56;;;;;;;60.70;39.80;;;;;;;-4.74;77.52;96874.27;107481;1241;96842;-81
2023/12/05 04:50:22;;;;;;;57.00;39.50;;;;;;;-4.72;77.65;96865.30;108032;1238;96538;-81
2023/12/05 04:52:48;;;;;;;55.60;39.00;;;;;;;-4.72;77.52;96862.83;107849;1243;99548;-81
2023/12/05 04:55:15;;;;;;;58.90;40.40;;;;;;;-4.71;77.55;96864.36;107980;1234;96531;-80
2023/12/05 04:57:41;;;;;;;58.30;39.30;;;;;;;-4.73;77.55;96864.14;107317;1239;96487;-80
2023/12/05 05:00:11;;;;;;;67.30;42.70;;;;;;;-4.73;77.57;96868.03;107970;1237;97791;-81
2023/12/05 05:02:37;;;;;;;64.20;42.40;;;;;;;-4.73;77.64;96864.34;107612;1238;100060;-83
2023/12/05 05:05:04;;;;;;;68.50;42.50;;;;;;;-4.72;77.70;96860.71;107943;1244;96518;-82
2023/12/05 05:07:30;;;;;;;66.20;43.50;;;;;;;-4.69;77.84;96864.02;107959;1237;96750;-83
2023/12/05 05:09:57;;;;;;;64.10;42.80;;;;;;;-4.66;77.75;96866.27;108003;1237;97062;-82
2023/12/05 05:12:23;;;;;;;76.60;48.40;;;;;;;-4.65;77.69;96867.20;107901;1246;98875;-81
2023/12/05 05:14:50;;;;;;;96.70;56.40;;;;;;;-4.64;77.84;96871.49;107936;1246;96562;-82
2023/12/05 05:17:16;;;;;;;97.10;55.50;;;;;;;-4.62;77.85;96867.27;107766;1244;96452;-80
2023/12/05 05:19:42;;;;;;;96.80;53.90;;;;;;;-4.60;77.91;96868.84;107933;1237;97762;-79
2023/12/05 05:22:09;;;;;;;85.10;52.00;;;;;;;-4.59;77.95;96866.29;107672;1244;99926;-80
2023/12/05 05:24:35;;;;;;;78.90;49.90;;;;;;;-4.58;77.99;96864.80;107561;1237;97082;-80
2023/12/05 05:27:03;;;;;;;68.00;44.30;;;;;;;-4.57;77.96;96865.23;107584;1237;97181;-80
2023/12/05 05:29:29;;;;;;;70.30;46.50;;;;;;;-4.56;77.93;96865.16;107398;1241;96597;-80
2023/12/05 05:31:56;;;;;;;69.40;45.40;;;;;;;-4.56;77.88;96863.77;107934;1237;97765;-82
2023/12/05 05:34:22;;;;;;;69.50;44.80;;;;;;;-4.57;77.94;96860.52;107974;1235;96484;-82
2023/12/05 05:36:49;;;;;;;67.80;43.30;;;;;;;-4.56;78.01;96858.34;108018;1239;97495;-82
2023/12/05 05:39:15;;;;;;;72.70;46.40;;;;;;;-4.56;78.00;96862.36;108027;1234;97880;-82
2023/12/05 05:41:41;;;;;;;86.00;50.70;;;;;;;-4.55;78.17;96862.61;108039;1248;97660;-82
2023/12/05 05:44:08;;;;;;;85.10;49.50;;;;;;;-4.54;78.14;96857.61;107972;1248;96637;-82
2023/12/05 05:46:34;;;;;;;86.50;50.50;;;;;;;-4.52;78.22;96856.76;107980;1237;96515;-83
2023/12/05 05:49:01;;;;;;;88.90;50.90;;;;;;;-4.51;78.22;96857.54;108001;1237;97455;-84
2023/12/05 05:51:27;;;;;;;90.40;54.30;;;;;;;-4.50;78.27;96854.11;108009;1234;97387;-84
2023/12/05 05:53:56;;;;;;;111.80;63.00;;;;;;;-4.47;78.27;96849.12;107864;1233;192973;-83
2023/12/05 05:56:22;;;;;;;109.90;63.30;;;;;;;-4.45;78.36;96849.95;107431;1241;97484;-84
2023/12/05 05:58:50;;;;;;;106.40;62.60;;;;;;;-4.42;78.39;96852.05;107994;1238;97106;-84
2023/12/05 06:01:16;;;;;;;97.00;55.20;;;;;;;-4.40;78.36;96852.23;107962;1237;96534;-84
2023/12/05 06:03:43;;;;;;;92.10;50.90;;;;;;;-4.39;78.31;96856.51;108022;1248;96575;-84
2023/12/05 06:06:09;;;;;;;89.00;51.80;;;;;;;-4.39;78.30;96857.34;108041;1233;97436;-82
2023/12/05 06:08:36;;;;;;;91.60;49.90;;;;;;;-4.38;78.43;96859.04;108049;1238;102102;-83
2023/12/05 06:11:02;;;;;;;92.20;53.10;;;;;;;-4.36;78.38;96861.16;107997;1238;96669;-83
2023/12/05 06:13:29;;;;;;;97.80;55.00;;;;;;;-4.35;78.24;96860.33;107917;1248;97087;-83
2023/12/05 06:15:55;;;;;;;106.10;55.90;;;;;;;-4.35;78.42;96862.65;107956;1233;97465;-83
2023/12/05 06:18:22;;;;;;;82.80;45.50;;;;;;;-4.35;78.46;96860.68;107822;1237;102309;-76
2023/12/05 06:20:51;;;;;;;98.40;51.40;;;;;;;-4.31;78.45;96862.33;107793;1239;97921;-77
2023/12/05 06:23:18;;;;;;;94.10;53.00;;;;;;;-4.28;78.49;96866.96;107828;1248;100005;-76
2023/12/05 06:25:44;;;;;;;92.40;53.60;;;;;;;-4.23;78.43;96871.96;107790;1246;96534;-76
2023/12/05 06:28:10;;;;;;;91.40;50.50;;;;;;;-4.19;78.48;96877.96;107770;1236;96888;-76
2023/12/05 06:30:37;;;;;;;74.10;43.30;;;;;;;-4.16;78.41;96873.63;108159;1238;96660;-77
2023/12/05 06:33:03;;;;;;;54.80;36.90;;;;;;;-4.13;78.40;96868.65;107972;1234;99477;-76
2023/12/05 06:35:30;;;;;;;50.10;34.00;;;;;;;-4.11;78.36;96867.34;107966;1238;96633;-77
2023/12/05 06:37:56;;;;;;;47.60;30.60;;;;;;;-4.09;78.25;96872.95;107952;1247;97440;-76
2023/12/05 06:40:22;;;;;;;34.20;24.20;;;;;;;-4.05;78.25;96876.02;108085;1234;97660;-76
2023/12/05 06:42:49;;;;;;;31.60;21.80;;;;;;;-4.02;78.17;96876.61;107957;1236;99575;-76
2023/12/05 06:45:15;;;;;;;37.60;28.20;;;;;;;-3.98;78.17;96875.89;107931;1237;97044;-76
2023/12/05 06:47:42;;;;;;;41.80;24.80;;;;;;;-3.93;78.10;96874.61;107978;1236;97837;-82
2023/12/05 06:50:10;;;;;;;33.60;23.70;;;;;;;-3.89;77.95;96871.83;108001;1237;96762;-82
2023/12/05 06:52:38;;;;;;;27.30;20.00;;;;;;;-3.86;77.98;96872.45;107927;1237;99925;-82
2023/12/05 06:55:06;;;;;;;24.70;18.10;;;;;;;-3.84;77.94;96871.48;107494;1241;97295;-82
2023/12/05 06:57:32;;;;;;;27.80;19.60;;;;;;;-3.80;77.90;96871.84;107979;1244;97028;-82
2023/12/05 06:59:59;;;;;;;27.40;19.00;;;;;;;-3.77;77.81;96866.81;108078;1248;96862;-82
2023/12/05 07:02:25;;;;;;;26.50;19.60;;;;;;;-3.73;77.76;96864.72;108120;1237;96539;-79
2023/12/05 07:04:52;;;;;;;30.00;21.80;;;;;;;-3.70;77.59;96866.39;108075;1237;96924;-80
2023/12/05 07:07:18;;;;;;;32.40;21.80;;;;;;;-3.66;77.66;96870.62;107933;1237;97040;-80
2023/12/05 07:09:45;;;;;;;31.90;22.70;;;;;;;-3.62;77.65;96873.98;108037;1237;97596;-83
2023/12/05 07:12:11;;;;;;;32.40;23.40;;;;;;;-3.59;77.68;96874.76;108009;1237;96640;-83
2023/12/05 07:14:37;;;;;;;32.60;23.30;;;;;;;-3.56;77.69;96875.88;108004;1244;97202;-83
2023/12/05 07:17:05;;;;;;;33.30;22.70;;;;;;;-3.53;77.66;96874.89;107946;1237;97889;-78
2023/12/05 07:19:31;;;;;;;55.80;30.70;;;;;;;-3.50;77.61;96876.05;107443;1247;101101;-78
2023/12/05 07:21:58;;;;;;;63.70;37.00;;;;;;;-3.46;77.67;96871.30;107844;1237;96554;-78
2023/12/05 07:24:24;;;;;;;66.70;35.20;;;;;;;-3.42;77.56;96871.73;107976;1234;97479;-78
2023/12/05 07:26:51;;;;;;;56.30;31.90;;;;;;;-3.38;77.60;96872.98;107979;1237;97787;-77
2023/12/05 07:29:17;;;;;;;49.20;28.20;;;;;;;-3.35;77.51;96869.70;108000;1237;102316;-78
2023/12/05 07:31:44;;;;;;;51.10;30.10;;;;;;;-3.31;77.41;96871.81;107991;1234;97466;-76
2023/12/05 07:34:10;;;;;;;43.50;27.40;;;;;;;-3.27;77.33;96883.27;107935;1237;97955;-76
2023/12/05 07:36:40;;;;;;;49.00;28.70;;;;;;;-3.24;77.15;96881.59;107660;1248;97492;-76
2023/12/05 07:39:09;;;;;;;43.00;27.40;;;;;;;-3.20;77.14;96883.34;107943;1244;101819;-76
2023/12/05 07:41:37;;;;;;;41.80;26.20;;;;;;;-3.15;76.93;96877.83;107956;1235;101168;-78
2023/12/05 07:44:03;;;;;;;41.40;26.50;;;;;;;-3.13;76.82;96879.17;107861;1242;97820;-77
2023/12/05 07:46:30;;;;;;;35.80;23.80;;;;;;;-3.10;76.76;96877.98;107781;1244;96528;-82
2023/12/05 07:48:56;;;;;;;39.40;24.40;;;;;;;-3.05;76.73;96873.17;108004;1238;97660;-83
2023/12/05 07:51:23;;;;;;;39.70;26.40;;;;;;;-3.01;76.75;96869.46;108000;1242;96571;-82
2023/12/05 07:53:50;;;;;;;44.40;28.30;;;;;;;-2.98;76.66;96864.38;107901;1238;98845;-82
2023/12/05 07:56:17;;;;;;;49.20;31.50;;;;;;;-2.95;76.60;96865.94;107206;1238;96604;-83
2023/12/05 07:58:44;;;;;;;52.10;35.50;;;;;;;-2.92;76.55;96864.39;107976;1236;96768;-83
2023/12/05 08:01:10;;;;;;;52.00;36.20;;;;;;;-2.88;76.57;96862.09;107769;1248;98177;-78
2023/12/05 08:03:37;;;;;;;50.60;34.10;;;;;;;-2.83;76.56;96863.73;107675;1248;96709;-78
2023/12/05 08:06:03;;;;;;;47.50;31.10;;;;;;;-2.79;76.47;96859.11;107793;1239;96572;-77
2023/12/05 08:08:30;;;;;;;46.60;29.60;;;;;;;-2.77;76.35;96858.26;107504;1242;97220;-78
2023/12/05 08:10:59;;;;;;;44.70;32.40;;;;;;;-2.74;76.26;96862.48;107404;1241;97070;-78
2023/12/05 08:13:25;;;;;;;46.20;30.40;;;;;;;-2.70;76.29;96859.83;110680;1240;101217;-76
2023/12/05 08:15:55;;;;;;;53.40;34.30;;;;;;;-2.64;76.35;96858.45;110525;1240;96635;-76
2023/12/05 08:18:22;;;;;;;44.20;29.20;;;;;;;-2.59;76.13;96858.44;107348;1244;97745;-77
2023/12/05 08:20:48;;;;;;;39.20;25.70;;;;;;;-2.53;75.95;96861.61;107413;1251;96532;-78
2023/12/05 08:23:15;;;;;;;39.40;25.30;;;;;;;-2.47;76.00;96860.02;107349;1239;96731;-78
2023/12/05 08:25:41;;;;;;;37.10;25.20;;;;;;;-2.39;75.92;96858.57;107434;1246;96738;-76
2023/12/05 08:28:08;;;;;;;37.90;25.40;;;;;;;-2.33;75.89;96859.92;107212;1239;97102;-76
2023/12/05 08:30:34;;;;;;;35.80;23.80;;;;;;;-2.28;75.78;96863.79;107281;1244;97642;-76
2023/12/05 08:33:00;;;;;;;34.80;22.20;;;;;;;-2.23;75.61;96868.05;107352;1244;96593;-76
2023/12/05 08:35:28;;;;;;;35.30;22.80;;;;;;;-2.18;75.51;96866.73;107530;1241;97450;-77
2023/12/05 08:37:54;;;;;;;41.90;25.60;;;;;;;-2.15;75.32;96861.87;107372;1243;97442;-76
2023/12/05 08:40:21;;;;;;;36.10;24.70;;;;;;;-2.09;75.43;96867.11;107446;1237;97105;-76
2023/12/05 08:42:47;;;;;;;34.40;22.90;;;;;;;-2.03;75.43;96870.98;107405;1251;96717;-76
2023/12/05 08:45:13;;;;;;;37.00;23.90;;;;;;;-1.96;75.31;96874.71;107491;1241;97159;-79
2023/12/05 08:47:41;;;;;;;36.30;23.30;;;;;;;-1.91;75.07;96878.41;107830;1237;97078;-83
2023/12/05 08:50:08;;;;;;;35.90;23.30;;;;;;;-1.85;74.95;96884.23;107966;1240;97762;-82
2023/12/05 08:52:34;;;;;;;39.20;25.90;;;;;;;-1.81;74.63;96879.06;107999;1248;96528;-83
2023/12/05 08:55:01;;;;;;;42.80;26.70;;;;;;;-1.79;74.57;96876.23;107933;1246;97249;-82
2023/12/05 08:57:28;;;;;;;43.40;26.80;;;;;;;-1.76;74.39;96875.73;107984;1234;96643;-83
2023/12/05 08:59:54;;;;;;;44.20;28.20;;;;;;;-1.73;74.27;96871.94;107980;1247;97081;-83
2023/12/05 09:02:21;;;;;;;45.60;28.90;;;;;;;-1.68;74.13;96880.08;107887;1237;102206;-83
2023/12/05 09:04:47;;;;;;;44.50;28.90;;;;;;;-1.62;74.12;96882.17;107893;1234;96790;-82
2023/12/05 09:07:14;;;;;;;45.00;28.10;;;;;;;-1.57;74.15;96885.87;107924;1237;97071;-82
2023/12/05 09:09:41;;;;;;;43.40;25.20;;;;;;;-1.54;73.92;96884.84;107529;1236;97144;-82
2023/12/05 09:12:08;;;;;;;39.90;25.00;;;;;;;-1.50;73.79;96882.91;108033;1241;97455;-83
2023/12/05 09:14:35;;;;;;;41.20;24.30;;;;;;;-1.44;73.63;96884.61;107937;1241;101218;-83
2023/12/05 09:17:03;;;;;;;39.20;24.30;;;;;;;-1.37;73.64;96884.64;107910;1237;97442;-80
2023/12/05 09:19:30;;;;;;;40.00;25.80;;;;;;;-1.29;73.46;96881.40;107678;1241;96543;-80
2023/12/05 09:21:56;;;;;;;44.20;26.90;;;;;;;-1.22;73.30;96879.05;107923;1247;96567;-80
2023/12/05 09:24:22;;;;;;;45.40;28.20;;;;;;;-1.15;73.14;96878.22;107948;1246;97789;-80
2023/12/05 09:26:49;;;;;;;58.80;34.30;;;;;;;-1.07;73.17;96879.69;108040;1237;96632;-80
2023/12/05 09:29:15;;;;;;;67.50;40.80;;;;;;;-1.02;72.98;96877.88;107930;1233;96533;-80
2023/12/05 09:31:42;;;;;;;69.80;42.30;;;;;;;-0.98;72.80;96872.31;107954;1237;97067;-80
2023/12/05 09:34:08;;;;;;;77.90;45.40;;;;;;;-0.91;72.69;96867.17;108002;1237;96749;-80
2023/12/05 09:36:35;;;;;;;61.30;35.30;;;;;;;-0.75;72.52;96871.54;107970;1239;97720;-80
2023/12/05 09:39:01;;;;;;;61.60;34.10;;;;;;;-0.56;72.41;96868.92;107591;1246;97432;-80
2023/12/05 09:41:29;;;;;;;49.30;30.20;;;;;;;-0.36;72.08;96866.30;107972;1237;97218;-81
2023/12/05 09:43:59;;;;;;;57.70;32.00;;;;;;;-0.18;71.77;96862.56;107607;1239;96733;-80
2023/12/05 09:46:27;;;;;;;52.10;27.90;;;;;;;-0.03;71.34;96863.27;107652;1232;100074;-86
2023/12/05 09:49:00;;;;;;;50.90;29.30;;;;;;;0.11;71.14;96862.33;107928;1247;99855;-86
2023/12/05 09:51:28;;;;;;;60.40;33.60;;;;;;;0.24;70.74;96860.91;107393;1248;96568;-86
2023/12/05 09:53:55;;;;;;;48.50;29.30;;;;;;;0.35;70.40;96858.55;108030;1237;97094;-87
2023/12/05 09:56:23;;;;;;;60.40;34.00;;;;;;;0.46;69.87;96855.30;109637;1233;96398;-93
2023/12/05 09:59:29;;;;;;;51.90;27.20;;;;;;;0.56;69.55;96849.23;109027;1234;136756;-78
2023/12/05 10:02:37;;;;;;;48.50;29.30;;;;;;;0.72;69.29;96842.73;106764;1251;100413;-79
2023/12/05 10:05:44;;;;;;;49.20;27.10;;;;;;;0.88;69.21;96833.92;105376;1263;97776;-79
2023/12/05 10:18:54;;;;;;;44.00;24.60;;;;;;;1.74;67.73;96823.68;101469;1309;638593;-80
2023/12/05 10:22:03;;;;;;;35.20;19.20;;;;;;;2.00;67.07;96825.30;102889;1284;96074;-82
2023/12/05 10:39:07;;;;;;;23.00;14.50;;;;;;;2.88;65.13;96808.28;101477;1311;646401;-78
2023/12/05 10:41:56;;;;;;;25.90;15.80;;;;;;;2.87;64.57;96806.89;104000;1280;96776;-78
2023/12/05 10:45:03;;;;;;;24.40;14.80;;;;;;;2.98;64.46;96805.96;103700;1287;96043;-79
2023/12/05 10:48:00;;;;;;;25.50;14.80;;;;;;;3.04;63.91;96803.35;103542;1294;98645;-78
2023/12/05 10:50:51;;;;;;;26.00;16.00;;;;;;;3.09;63.06;96802.38;99181;1286;5404949;-79
2023/12/05 10:53:41;;;;;;;25.90;14.80;;;;;;;3.20;62.87;96803.19;103270;1277;97358;-79
2023/12/05 10:56:54;;;;;;;25.90;16.00;;;;;;;3.28;62.51;96802.45;103308;1290;96026;-79
2023/12/05 11:13:12;;;;;;;25.60;16.50;;;;;;;3.70;61.83;96810.58;101500;1302;638707;-78
2023/12/05 11:16:21;;;;;;;25.50;16.10;;;;;;;3.78;61.41;96809.46;103927;1289;97021;-79
2023/12/05 11:39:11;;;;;;;23.00;13.30;;;;;;;3.72;59.09;96806.95;101551;1302;639079;-80
2023/12/05 11:42:29;;;;;;;24.40;15.00;;;;;;;3.52;58.90;96804.26;104119;1278;97200;-79
2023/12/05 11:45:40;;;;;;;18.30;12.80;;;;;;;3.44;58.92;96801.59;103552;1273;96004;-81
2023/12/05 11:48:41;;;;;;;21.60;12.30;;;;;;;3.44;59.35;96802.66;102961;1284;98631;-80
2023/12/05 12:08:14;;;;;;;46.40;21.70;;;;;;;3.17;58.97;96782.20;101428;1299;638601;-80
2023/12/05 12:11:22;;;;;;;27.30;15.60;;;;;;;3.00;58.87;96782.62;103074;1286;97333;-80
2023/12/05 12:30:17;;;;;;;32.20;17.10;;;;;;;2.54;59.64;96775.77;101476;1303;639238;-79
2023/12/05 12:33:28;;;;;;;29.30;16.40;;;;;;;2.42;59.71;96779.06;104004;1275;96367;-78
2023/12/05 12:36:18;;;;;;;33.80;17.40;;;;;;;2.39;59.74;96781.27;104067;1277;96813;-81
2023/12/05 12:39:03;;;;;;;29.90;16.70;;;;;;;2.38;59.67;96784.00;104122;1273;98376;-79
2023/12/05 12:42:12;;;;;;;35.70;19.70;;;;;;;2.33;59.77;96786.02;104005;1269;100094;-82
2023/12/05 12:45:20;;;;;;;34.00;19.40;;;;;;;2.24;59.86;96787.95;100324;1281;100846;-79
2023/12/05 12:48:19;;;;;;;37.20;20.90;;;;;;;2.20;60.13;96782.88;103889;1272;95961;-79
2023/12/05 12:51:27;;;;;;;42.50;23.80;;;;;;;2.14;60.36;96781.95;103595;1280;98594;-81
2023/12/05 12:54:33;;;;;;;39.50;21.60;;;;;;;2.06;60.42;96780.39;102427;1286;102172;-79
2023/12/05 13:01:18;;;;;;;30.20;18.10;;;;;;;1.98;60.45;96779.71;101564;1295;638588;-80
2023/12/05 13:04:26;;;;;;;32.80;17.40;;;;;;;1.94;60.45;96782.79;103252;1303;95934;-79
2023/12/05 13:07:40;;;;;;;29.10;16.90;;;;;;;1.91;60.54;96782.65;103824;1276;96938;-80
2023/12/05 13:25:29;;;;;;;40.30;23.10;;;;;;;1.61;61.21;96789.20;101617;1295;636177;-78
2023/12/05 13:28:13;;;;;;;34.80;19.50;;;;;;;1.61;61.13;96788.64;104082;1272;97112;-80
2023/12/05 13:31:14;;;;;;;33.70;20.40;;;;;;;1.58;61.07;96790.48;104044;1272;96851;-79
2023/12/05 13:34:05;;;;;;;34.70;19.20;;;;;;;1.51;60.97;96796.21;103515;1292;98273;-79
2023/12/05 13:37:13;;;;;;;32.50;20.30;;;;;;;1.42;61.11;96795.53;103272;1284;100386;-80
2023/12/05 13:40:06;;;;;;;38.20;22.30;;;;;;;1.36;61.36;96799.23;98824;1287;5401437;-79
2023/12/05 13:43:15;;;;;;;40.60;23.30;;;;;;;1.33;61.64;96799.27;102407;1291;97290;-79
2023/12/05 13:46:16;;;;;;;41.00;24.10;;;;;;;1.29;61.56;96804.67;103195;1280;96849;-80
2023/12/05 13:49:25;;;;;;;47.10;26.40;;;;;;;1.21;61.61;96803.71;103029;1285;98432;-79
2023/12/05 14:09:14;;;;;;;45.40;27.00;;;;;;;0.65;62.54;96810.02;101489;1301;642653;-79
2023/12/05 14:12:21;;;;;;;58.40;33.20;;;;;;;0.54;62.57;96812.26;102793;1289;96008;-80
2023/12/05 14:26:00;;;;;;;103.80;62.00;;;;;;;0.13;63.07;96818.98;102013;1295;638518;-82
2023/12/05 14:29:08;;;;;;;134.80;76.30;;;;;;;-0.05;63.09;96818.19;104469;1266;96744;-80
2023/12/05 14:32:17;;;;;;;102.90;59.30;;;;;;;-0.20;63.23;96819.23;104196;1275;96049;-80
2023/12/05 14:35:21;;;;;;;179.20;105.50;;;;;;;-0.34;63.62;96825.64;104139;1283;100362;-80
2023/12/05 14:38:31;;;;;;;198.30;119.40;;;;;;;-0.50;63.99;96829.23;99624;1280;5351933;-79
2023/12/05 14:41:53;;;;;;;167.00;103.60;;;;;;;-0.62;64.39;96833.33;103103;1283;98944;-80
2023/12/05 14:57:17;;;;;;;198.50;111.20;;;;;;;-1.02;64.86;96831.34;101951;1299;635723;-82
2023/12/05 15:00:26;;;;;;;163.90;98.00;;;;;;;-1.11;65.14;96830.30;104332;1269;95898;-81
2023/12/05 15:22:31;;;;;;;250.40;145.70;;;;;;;-1.88;65.94;96835.14;101375;1301;638526;-84
2023/12/05 15:25:40;;;;;;;269.60;167.10;;;;;;;-2.05;65.98;96833.27;103386;1283;95917;-80
2023/12/05 15:28:48;;;;;;;262.40;151.70;;;;;;;-2.22;65.94;96835.60;102584;1290;96025;-80
2023/12/05 15:47:34;;;;;;;209.30;123.40;;;;;;;-2.85;66.64;96840.89;101160;1304;638669;-83
2023/12/05 15:50:42;;;;;;;206.90;122.40;;;;;;;-2.96;66.93;96842.02;103094;1287;95861;-82
2023/12/05 16:07:13;;;;;;;229.50;133.80;;;;;;;-3.30;67.21;96828.98;101925;1296;642544;-85
2023/12/05 16:10:20;;;;;;;222.60;129.80;;;;;;;-3.47;67.37;96833.02;103960;1273;97238;-82
2023/12/05 16:13:27;;;;;;;237.80;141.00;;;;;;;-3.58;67.40;96835.05;102837;1286;96096;-81
2023/12/05 16:39:46;;;;;;;291.60;147.20;;;;;;;-3.73;67.35;96847.53;102063;1300;643042;-82
2023/12/05 16:42:55;;;;;;;370.80;195.30;;;;;;;-3.80;67.42;96843.41;99346;1281;5334207;-85
